Terminal Aerodrome Forecast
Issued by NWS Billings, MT

Home | Current Version | Previous Version | Graphics & Text | Print | Product List | Glossary On
Versions: 1 2 3 4 5 6 7 8 9 10 11 12 13 14 15 16
000
FTUS45 KBYZ 171849 AAA
TAFMLS
TAF AMD
KMLS 171849Z 1719/1818 30009KT 1SM -SN BR VV007
      TEMPO 1719/1720 1/2SM SN FZFG VV005
     FM172000 31015KT 3SM -SN BR SCT008 OVC015
     FM172200 29011KT 6SM -RASN BR OVC025
     FM172300 28008KT P6SM VCSH FEW040 BKN100
     FM180900 29010KT P6SM SKC=

USA.gov is the U.S. government's official web portal to all federal, state and local government web resources and services.